createdAt,value
2023-04-05T00:00:32.614Z,-2.36
2023-04-05T00:03:03.286Z,-2.29
2023-04-05T00:05:34.746Z,-2.28
2023-04-05T00:08:01.979Z,-2.29
2023-04-05T00:10:30.336Z,-2.37
2023-04-05T00:13:00.894Z,-2.47
2023-04-05T00:15:28.327Z,-2.55
2023-04-05T00:17:55.739Z,-2.55
2023-04-05T00:20:22.774Z,-2.62
2023-04-05T00:22:50.913Z,-2.57
2023-04-05T00:25:18.876Z,-2.67
2023-04-05T00:27:46.115Z,-2.73
2023-04-05T00:30:13.573Z,-2.76
2023-04-05T00:32:40.588Z,-2.91
2023-04-05T00:35:07.983Z,-2.81
2023-04-05T00:37:34.952Z,-2.78
2023-04-05T00:40:02.132Z,-2.85
2023-04-05T00:42:29.200Z,-2.79
2023-04-05T00:44:56.605Z,-2.83
2023-04-05T00:47:23.979Z,-2.87
2023-04-05T00:49:51.130Z,-2.88
2023-04-05T00:52:19.928Z,-2.93
2023-04-05T00:54:46.884Z,-3.06
2023-04-05T00:57:15.121Z,-2.99
2023-04-05T00:59:42.453Z,-3.15
2023-04-05T01:02:18.274Z,-3.20
2023-04-05T01:04:50.454Z,-3.19
2023-04-05T01:07:32.276Z,-3.30
2023-04-05T01:10:00.969Z,-3.48
2023-04-05T01:12:33.230Z,-3.36
2023-04-05T01:15:02.633Z,-3.22
2023-04-05T01:17:37.150Z,-3.11
2023-04-05T01:20:11.061Z,-3.01
2023-04-05T01:23:08.782Z,-2.99
2023-04-05T01:26:12.774Z,-3.06
2023-04-05T01:29:18.000Z,-3.05
2023-04-05T01:32:01.235Z,-3.00
2023-04-05T01:34:52.488Z,-3.05
2023-04-05T01:37:24.120Z,-3.12
2023-04-05T01:39:51.412Z,-3.11
2023-04-05T01:42:27.401Z,-3.14
2023-04-05T01:44:55.480Z,-3.25
2023-04-05T01:47:22.730Z,-3.30
2023-04-05T01:49:49.630Z,-3.31
2023-04-05T01:52:16.522Z,-3.33
2023-04-05T01:54:43.517Z,-3.34
2023-04-05T01:57:10.580Z,-3.33
2023-04-05T01:59:37.543Z,-3.33
2023-04-05T02:02:04.407Z,-3.36
2023-04-05T02:04:31.380Z,-3.38
2023-04-05T02:06:58.499Z,-3.34
2023-04-05T02:09:25.690Z,-3.37
2023-04-05T02:11:52.459Z,-3.31
2023-04-05T02:14:19.350Z,-3.32
2023-04-05T02:16:47.064Z,-3.33
2023-04-05T02:19:16.200Z,-3.39
2023-04-05T02:21:43.209Z,-3.41
2023-04-05T02:24:10.345Z,-3.37
2023-04-05T02:26:37.323Z,-3.26
2023-04-05T02:29:04.264Z,-3.33
2023-04-05T02:31:31.205Z,-3.45
2023-04-05T02:33:58.020Z,-3.56
2023-04-05T02:36:28.530Z,-3.56
2023-04-05T02:38:55.777Z,-3.51
2023-04-05T02:41:24.098Z,-3.54
2023-04-05T02:43:51.272Z,-3.60
2023-04-05T02:46:18.119Z,-3.62
2023-04-05T02:48:46.114Z,-3.57
2023-04-05T02:51:13.260Z,-3.62
2023-04-05T02:53:40.446Z,-3.70
2023-04-05T02:56:07.989Z,-3.81
2023-04-05T02:58:34.904Z,-3.76
2023-04-05T03:01:07.544Z,-3.69
2023-04-05T03:03:35.164Z,-3.65
2023-04-05T03:06:15.910Z,-3.61
2023-04-05T03:08:48.958Z,-3.90
2023-04-05T03:11:16.252Z,-3.75
2023-04-05T03:13:43.347Z,-3.67
2023-04-05T03:16:10.765Z,-3.56
2023-04-05T03:18:37.900Z,-3.60
2023-04-05T03:21:04.922Z,-3.72
2023-04-05T03:23:32.545Z,-3.80
2023-04-05T03:26:10.627Z,-3.89
2023-04-05T03:28:37.560Z,-3.87
2023-04-05T03:31:05.850Z,-4.05
2023-04-05T03:33:32.697Z,-4.42
2023-04-05T03:36:00.312Z,-4.15
2023-04-05T03:38:28.647Z,-4.13
2023-04-05T03:40:55.848Z,-4.10
2023-04-05T03:43:22.559Z,-4.12
2023-04-05T03:45:49.513Z,-4.11
2023-04-05T03:48:20.692Z,-4.11
2023-04-05T03:50:48.013Z,-4.11
2023-04-05T03:53:17.661Z,-4.09
2023-04-05T03:55:49.720Z,-4.09
2023-04-05T03:58:17.638Z,-4.12
2023-04-05T04:00:44.452Z,-4.11
2023-04-05T04:03:11.919Z,-4.11
2023-04-05T04:05:39.672Z,-4.13
2023-04-05T04:08:07.103Z,-4.15
2023-04-05T04:10:37.687Z,-4.24
2023-04-05T04:13:04.393Z,-4.09
2023-04-05T04:15:31.943Z,-4.15
2023-04-05T04:17:58.916Z,-4.16
2023-04-05T04:20:26.019Z,-4.00
2023-04-05T04:22:56.462Z,-3.68
2023-04-05T04:25:31.037Z,-3.66
2023-04-05T04:27:58.891Z,-3.75
2023-04-05T04:30:26.121Z,-3.65
2023-04-05T04:32:53.691Z,-3.66
2023-04-05T04:35:25.921Z,-3.50
2023-04-05T04:37:58.219Z,-3.40
2023-04-05T04:40:39.252Z,-3.22
2023-04-05T04:43:10.420Z,-3.04
2023-04-05T04:45:38.222Z,-2.85
2023-04-05T04:48:05.800Z,-2.70
2023-04-05T04:50:33.226Z,-2.54
2023-04-05T04:53:02.105Z,-2.37
2023-04-05T04:55:29.458Z,-2.27
2023-04-05T04:57:57.532Z,-2.12
2023-04-05T05:00:28.894Z,-1.90
2023-04-05T05:02:56.572Z,-1.70
2023-04-05T05:05:23.802Z,-1.54
2023-04-05T05:07:52.983Z,-1.38
2023-04-05T05:10:20.862Z,-1.50
2023-04-05T05:12:49.056Z,-1.31
2023-04-05T05:15:16.179Z,-1.25
2023-04-05T05:17:43.126Z,-1.01
2023-04-05T05:20:11.402Z,-0.52
2023-04-05T05:22:39.680Z,-0.73
2023-04-05T05:25:07.627Z,-0.70
2023-04-05T05:27:35.202Z,-0.56
2023-04-05T05:30:02.399Z,-0.62
2023-04-05T05:32:29.350Z,-0.60
2023-04-05T05:34:56.224Z,-0.51
2023-04-05T05:37:33.663Z,-0.40
2023-04-05T05:40:00.735Z,-0.15
2023-04-05T05:42:27.943Z,0.07
2023-04-05T05:44:54.975Z,0.17
2023-04-05T05:47:22.114Z,0.08
2023-04-05T05:49:50.030Z,0.27
2023-04-05T05:52:17.209Z,0.54
2023-04-05T05:54:44.217Z,0.66
2023-04-05T05:57:11.179Z,0.81
2023-04-05T05:59:37.938Z,0.97
2023-04-05T06:02:04.921Z,1.13
2023-04-05T06:04:32.021Z,1.26
2023-04-05T06:06:59.345Z,1.44
2023-04-05T06:09:26.595Z,1.55
2023-04-05T06:11:56.982Z,1.72
2023-04-05T06:14:25.623Z,1.58
2023-04-05T06:16:52.824Z,1.94
2023-04-05T06:19:19.729Z,2.20
2023-04-05T06:21:46.679Z,2.14
2023-04-05T06:24:13.674Z,2.24
2023-04-05T06:26:40.523Z,2.41
2023-04-05T06:29:07.457Z,2.67
2023-04-05T06:31:36.301Z,2.98
2023-04-05T06:34:03.690Z,2.92
2023-04-05T06:36:34.522Z,3.12
2023-04-05T06:39:01.880Z,3.27
2023-04-05T06:41:29.021Z,3.50
2023-04-05T06:43:56.761Z,3.84
2023-04-05T06:46:24.682Z,4.21
2023-04-05T06:48:52.726Z,4.41
2023-04-05T06:51:22.669Z,4.76
2023-04-05T06:53:49.613Z,4.89
2023-04-05T06:56:16.640Z,5.09
2023-04-05T06:58:44.386Z,5.32
2023-04-05T07:01:13.792Z,5.45
2023-04-05T07:03:41.030Z,5.68
2023-04-05T07:06:10.013Z,5.85
2023-04-05T07:08:37.190Z,6.06
2023-04-05T07:11:04.013Z,6.27
2023-04-05T07:13:33.077Z,6.31
2023-04-05T07:16:01.835Z,6.44
2023-04-05T07:18:30.298Z,6.59
2023-04-05T07:21:02.230Z,6.69
2023-04-05T07:23:29.900Z,6.73
2023-04-05T07:26:05.058Z,6.73
2023-04-05T07:28:36.230Z,6.90
2023-04-05T07:31:04.792Z,6.75
2023-04-05T07:33:31.810Z,6.32
2023-04-05T07:35:58.910Z,6.17
2023-04-05T07:38:27.514Z,5.99
2023-04-05T07:40:54.565Z,5.82
2023-04-05T07:43:21.832Z,6.05
2023-04-05T07:45:48.678Z,6.12
2023-04-05T07:48:18.357Z,6.25
2023-04-05T07:50:48.019Z,6.41
2023-04-05T07:53:15.404Z,6.63
2023-04-05T07:55:42.408Z,6.90
2023-04-05T07:58:09.483Z,6.98
2023-04-05T08:00:37.321Z,7.21
2023-04-05T08:03:05.007Z,7.68
2023-04-05T08:05:32.153Z,7.90
2023-04-05T08:07:59.290Z,7.71
2023-04-05T08:10:26.306Z,8.10
2023-04-05T08:12:53.932Z,9.15
2023-04-05T08:15:21.364Z,10.61
2023-04-05T08:17:48.324Z,11.49
2023-04-05T08:20:15.400Z,12.76
2023-04-05T08:22:42.548Z,13.40
2023-04-05T08:25:09.612Z,13.50
2023-04-05T08:27:36.452Z,14.68
2023-04-05T08:30:06.327Z,16.57
2023-04-05T08:32:33.789Z,19.78
2023-04-05T08:35:01.247Z,23.33
2023-04-05T08:37:28.348Z,21.88
2023-04-05T08:39:55.545Z,22.03
2023-04-05T08:43:06.109Z,22.66
2023-04-05T08:45:34.784Z,26.15
2023-04-05T08:48:01.978Z,29.18
2023-04-05T08:50:28.740Z,30.65
2023-04-05T08:52:56.032Z,31.78
2023-04-05T08:55:23.090Z,33.13
2023-04-05T08:57:54.264Z,34.41
2023-04-05T09:00:23.619Z,35.33
2023-04-05T09:02:55.504Z,35.85
2023-04-05T09:05:24.441Z,36.11
2023-04-05T09:07:52.213Z,36.42
2023-04-05T09:10:20.487Z,37.52
2023-04-05T09:12:47.943Z,37.29
2023-04-05T09:15:16.544Z,37.85
2023-04-05T09:17:43.980Z,38.25
2023-04-05T09:20:10.969Z,37.26
2023-04-05T09:22:47.812Z,37.60
2023-04-05T09:25:39.967Z,38.85
2023-04-05T09:28:07.706Z,39.00
2023-04-05T09:30:37.117Z,39.59
2023-04-05T09:33:10.594Z,40.44
2023-04-05T09:35:37.740Z,40.39
2023-04-05T09:38:10.026Z,40.75
2023-04-05T09:40:45.721Z,39.98
2023-04-05T09:43:14.523Z,40.34
2023-04-05T09:45:43.142Z,39.98
2023-04-05T09:48:10.187Z,39.68
2023-04-05T09:50:37.384Z,40.61
2023-04-05T09:53:16.318Z,41.74
2023-04-05T09:55:44.107Z,41.43
2023-04-05T09:58:19.676Z,41.87
2023-04-05T10:00:57.930Z,42.60
2023-04-05T10:03:30.517Z,42.02
2023-04-05T10:05:57.797Z,41.51
2023-04-05T10:08:25.258Z,40.96
2023-04-05T10:10:54.863Z,41.80
2023-04-05T10:13:22.481Z,42.59
2023-04-05T10:15:51.449Z,43.30
2023-04-05T10:18:39.347Z,43.73
2023-04-05T10:21:08.613Z,43.94
2023-04-05T10:23:38.110Z,43.28
2023-04-05T10:26:11.694Z,42.76
2023-04-05T10:28:47.509Z,42.65
2023-04-05T10:31:39.212Z,41.87
2023-04-05T10:34:19.828Z,43.20
2023-04-05T10:37:04.974Z,44.65
2023-04-05T10:39:46.007Z,39.28
2023-04-05T10:42:33.941Z,34.15
2023-04-05T10:45:05.020Z,39.13
2023-04-05T10:47:37.238Z,43.42
2023-04-05T10:50:08.847Z,44.32
2023-04-05T10:52:40.908Z,42.71
2023-04-05T10:55:10.507Z,36.03
2023-04-05T10:57:38.700Z,34.78
2023-04-05T11:00:06.555Z,36.25
2023-04-05T11:02:34.019Z,35.14
2023-04-05T11:05:05.157Z,33.38
2023-04-05T11:07:45.731Z,28.70
2023-04-05T11:10:18.490Z,25.86
2023-04-05T11:12:57.348Z,23.71
2023-04-05T11:15:33.469Z,22.11
2023-04-05T11:18:11.365Z,20.61
2023-04-05T11:20:51.808Z,19.39
2023-04-05T11:23:23.594Z,18.48
2023-04-05T11:25:57.753Z,18.31
2023-04-05T11:28:44.931Z,17.85
2023-04-05T11:31:23.098Z,17.76
2023-04-05T11:34:12.916Z,17.84
2023-04-05T11:36:46.264Z,17.44
2023-04-05T11:39:18.999Z,17.54
2023-04-05T11:42:03.344Z,17.43
2023-04-05T11:44:40.978Z,17.74
2023-04-05T11:47:08.611Z,17.94
2023-04-05T11:49:35.680Z,18.38
2023-04-05T11:52:14.534Z,18.62
2023-04-05T11:54:46.780Z,19.13
2023-04-05T11:57:18.859Z,19.58
2023-04-05T11:59:45.902Z,20.25
2023-04-05T12:02:13.205Z,24.98
2023-04-05T12:04:40.858Z,23.86
2023-04-05T12:07:16.921Z,23.02
2023-04-05T12:10:02.616Z,25.16
2023-04-05T12:12:38.526Z,31.49
2023-04-05T12:15:08.863Z,34.26
2023-04-05T12:17:44.432Z,34.96
2023-04-05T12:20:16.941Z,33.28
2023-04-05T12:22:45.928Z,31.59
2023-04-05T12:25:13.831Z,28.83
2023-04-05T12:27:41.478Z,26.87
2023-04-05T12:30:18.991Z,25.97
2023-04-05T12:32:46.965Z,24.73
2023-04-05T12:35:16.635Z,23.56
2023-04-05T12:37:43.896Z,22.49
2023-04-05T12:40:12.301Z,21.88
2023-04-05T12:42:40.695Z,21.19
2023-04-05T12:45:13.177Z,20.94
2023-04-05T12:47:59.954Z,20.87
2023-04-05T12:50:31.936Z,21.57
2023-04-05T12:53:06.312Z,21.59
2023-04-05T12:55:43.093Z,21.83
2023-04-05T12:58:10.296Z,20.96
2023-04-05T13:00:37.407Z,19.63
2023-04-05T13:03:04.482Z,18.74
2023-04-05T13:05:31.686Z,18.81
2023-04-05T13:07:59.300Z,18.75
2023-04-05T13:10:26.662Z,18.88
2023-04-05T13:12:53.799Z,16.61
2023-04-05T13:15:21.188Z,16.74
2023-04-05T13:17:50.504Z,16.77
2023-04-05T13:20:18.468Z,16.22
2023-04-05T13:22:46.683Z,16.25
2023-04-05T13:25:15.150Z,16.28
2023-04-05T13:27:42.094Z,16.19
2023-04-05T13:30:10.002Z,16.10
2023-04-05T13:32:37.210Z,15.84
2023-04-05T13:35:05.010Z,15.76
2023-04-05T13:37:32.300Z,15.82
2023-04-05T13:39:59.376Z,15.70
2023-04-05T13:42:26.489Z,15.59
2023-04-05T13:44:53.615Z,15.28
2023-04-05T13:47:20.572Z,15.03
2023-04-05T13:49:47.488Z,15.29
2023-04-05T13:52:14.389Z,15.45
2023-04-05T13:54:41.412Z,15.50
2023-04-05T13:57:08.704Z,15.22
2023-04-05T13:59:35.922Z,14.81
2023-04-05T14:02:02.968Z,14.68
2023-04-05T14:04:29.998Z,14.57
2023-04-05T14:06:58.075Z,14.69
2023-04-05T14:09:25.067Z,14.36
2023-04-05T14:11:54.951Z,14.03
2023-04-05T14:14:23.183Z,13.72
2023-04-05T14:16:50.254Z,13.44
2023-04-05T14:19:18.575Z,13.12
2023-04-05T14:21:45.995Z,13.04
2023-04-05T14:24:12.982Z,12.81
2023-04-05T14:26:39.912Z,12.73
2023-04-05T14:29:07.344Z,12.70
2023-04-05T14:31:34.239Z,12.77
2023-04-05T14:34:01.411Z,12.58
2023-04-05T14:36:28.391Z,12.54
2023-04-05T14:38:55.474Z,12.52
2023-04-05T14:41:22.362Z,12.78
2023-04-05T14:43:49.201Z,13.13
2023-04-05T14:46:16.240Z,13.33
2023-04-05T14:48:43.293Z,13.43
2023-04-05T14:51:10.575Z,13.51
2023-04-05T14:53:37.598Z,13.75
2023-04-05T14:56:04.712Z,13.72
2023-04-05T14:58:33.391Z,13.92
2023-04-05T15:01:00.509Z,14.02
2023-04-05T15:03:28.472Z,13.97
2023-04-05T15:05:56.854Z,14.02
2023-04-05T15:08:23.821Z,14.24
2023-04-05T15:10:50.860Z,14.15
2023-04-05T15:13:19.906Z,14.20
2023-04-05T15:15:46.834Z,14.01
2023-04-05T15:18:13.979Z,13.96
2023-04-05T15:20:41.360Z,14.17
2023-04-05T15:23:08.947Z,14.38
2023-04-05T15:25:35.994Z,14.44
2023-04-05T15:28:06.706Z,14.48
2023-04-05T15:30:36.468Z,14.46
2023-04-05T15:33:03.828Z,14.11
2023-04-05T15:35:31.166Z,13.98
2023-04-05T15:37:59.015Z,13.77
2023-04-05T15:40:26.581Z,13.43
2023-04-05T15:42:55.132Z,12.85
2023-04-05T15:45:22.088Z,12.53
2023-04-05T15:47:49.372Z,12.76
2023-04-05T15:50:16.438Z,12.90
2023-04-05T15:52:43.234Z,12.92
2023-04-05T15:55:10.178Z,13.03
2023-04-05T15:57:37.078Z,13.02
2023-04-05T16:00:05.095Z,13.10
2023-04-05T16:02:32.216Z,13.14
2023-04-05T16:04:59.050Z,12.72
2023-04-05T16:07:26.093Z,12.65
2023-04-05T16:09:53.191Z,12.37
2023-04-05T16:12:20.263Z,12.29
2023-04-05T16:14:47.244Z,12.34
2023-04-05T16:17:14.788Z,12.30
2023-04-05T16:19:41.918Z,12.19
2023-04-05T16:22:08.845Z,12.22
2023-04-05T16:24:36.929Z,12.27
2023-04-05T16:27:04.126Z,12.25
2023-04-05T16:29:31.091Z,12.17
2023-04-05T16:31:58.221Z,12.03
2023-04-05T16:34:25.147Z,11.80
2023-04-05T16:36:52.240Z,11.82
2023-04-05T16:39:19.373Z,11.74
2023-04-05T16:41:46.298Z,11.59
2023-04-05T16:44:13.487Z,11.34
2023-04-05T16:46:40.678Z,11.04
2023-04-05T16:49:07.787Z,11.13
2023-04-05T16:51:35.970Z,11.07
2023-04-05T16:54:03.601Z,11.01
2023-04-05T16:56:33.010Z,10.84
2023-04-05T16:59:00.161Z,10.71
2023-04-05T17:01:27.928Z,10.81
2023-04-05T17:03:54.934Z,10.58
2023-04-05T17:06:22.118Z,10.50
2023-04-05T17:08:49.323Z,10.32
2023-04-05T17:11:16.259Z,10.13
2023-04-05T17:13:45.367Z,9.88
2023-04-05T17:16:15.818Z,9.55
2023-04-05T17:18:42.694Z,9.33
2023-04-05T17:21:10.021Z,8.84
2023-04-05T17:23:36.936Z,8.74
2023-04-05T17:26:04.064Z,8.60
2023-04-05T17:28:32.233Z,8.46
2023-04-05T17:30:59.269Z,8.25
2023-04-05T17:33:27.480Z,8.15
2023-04-05T17:35:55.328Z,7.97
2023-04-05T17:38:22.174Z,7.78
2023-04-05T17:40:49.186Z,7.64
2023-04-05T17:43:16.140Z,7.53
2023-04-05T17:45:43.210Z,7.40
2023-04-05T17:48:10.312Z,7.30
2023-04-05T17:50:37.651Z,7.06
2023-04-05T17:55:33.947Z,6.76
2023-04-05T17:58:01.203Z,6.70
2023-04-05T18:00:28.185Z,6.54
2023-04-05T18:02:55.189Z,6.43
2023-04-05T18:05:22.753Z,6.33
2023-04-05T18:07:49.649Z,6.07
2023-04-05T18:10:16.779Z,5.98
2023-04-05T18:12:43.924Z,5.88
2023-04-05T18:15:12.808Z,5.80
2023-04-05T18:17:41.086Z,5.67
2023-04-05T18:20:11.635Z,5.53
2023-04-05T18:22:38.708Z,5.46
2023-04-05T18:25:06.855Z,5.37
2023-04-05T18:27:34.006Z,5.29
2023-04-05T18:30:01.097Z,5.25
2023-04-05T18:32:28.270Z,5.25
2023-04-05T18:34:55.360Z,5.16
2023-04-05T18:37:22.324Z,5.04
2023-04-05T18:39:49.225Z,4.95
2023-04-05T18:42:16.490Z,4.84
2023-04-05T18:44:43.499Z,4.72
2023-04-05T18:47:10.406Z,4.58
2023-04-05T18:49:37.524Z,4.53
2023-04-05T18:52:04.527Z,4.38
2023-04-05T18:54:31.515Z,4.27
2023-04-05T18:56:58.903Z,4.29
2023-04-05T18:59:26.091Z,4.09
2023-04-05T19:01:53.244Z,3.94
2023-04-05T19:04:20.503Z,3.84
2023-04-05T19:06:47.561Z,3.81
2023-04-05T19:09:16.819Z,3.76
2023-04-05T19:11:45.245Z,3.70
2023-04-05T19:14:13.079Z,3.58
2023-04-05T19:16:41.469Z,3.50
2023-04-05T19:19:09.051Z,3.45
2023-04-05T19:21:36.543Z,3.38
2023-04-05T19:24:03.901Z,3.33
2023-04-05T19:26:32.553Z,3.14
2023-04-05T19:29:00.069Z,3.20
2023-04-05T19:31:30.454Z,3.13
2023-04-05T19:33:57.562Z,3.04
2023-04-05T19:36:24.826Z,3.03
2023-04-05T19:38:52.371Z,2.90
2023-04-05T19:41:20.163Z,2.90
2023-04-05T19:43:47.955Z,2.92
2023-04-05T19:46:17.153Z,2.98
2023-04-05T19:48:47.555Z,3.00
2023-04-05T19:51:18.203Z,2.96
2023-04-05T19:53:48.843Z,3.39
2023-04-05T19:56:20.438Z,3.01
2023-04-05T19:58:51.212Z,2.89
2023-04-05T20:01:29.686Z,3.14
2023-04-05T20:03:56.893Z,2.76
2023-04-05T20:06:24.185Z,2.56
2023-04-05T20:08:51.297Z,2.55
2023-04-05T20:11:22.831Z,2.48
2023-04-05T20:13:56.503Z,2.39
2023-04-05T20:16:31.371Z,2.27
2023-04-05T20:19:04.475Z,2.19
2023-04-05T20:21:32.462Z,2.14
2023-04-05T20:24:03.482Z,2.12
2023-04-05T20:26:31.645Z,2.03
2023-04-05T20:29:01.407Z,1.97
2023-04-05T20:31:32.194Z,1.96
2023-04-05T20:34:12.874Z,1.88
2023-04-05T20:36:45.288Z,1.83
2023-04-05T20:39:12.140Z,1.78
2023-04-05T20:41:39.198Z,1.76
2023-04-05T20:44:06.767Z,1.73
2023-04-05T20:46:34.163Z,1.87
2023-04-05T20:49:01.867Z,1.57
2023-04-05T20:51:28.796Z,1.62
2023-04-05T20:53:56.267Z,1.62
2023-04-05T20:56:23.088Z,2.00
2023-04-05T20:58:50.216Z,2.02
2023-04-05T21:01:17.422Z,1.81
2023-04-05T21:03:44.479Z,1.85
2023-04-05T21:06:11.597Z,2.05
2023-04-05T21:08:41.103Z,1.84
2023-04-05T21:11:08.613Z,1.79
2023-04-05T21:13:36.064Z,1.74
2023-04-05T21:16:03.080Z,1.68
2023-04-05T21:18:30.073Z,1.54
2023-04-05T21:20:56.993Z,1.45
2023-04-05T21:23:29.831Z,1.31
2023-04-05T21:25:58.546Z,1.17
2023-04-05T21:28:26.659Z,1.23
2023-04-05T21:30:53.768Z,1.14
2023-04-05T21:33:21.074Z,0.92
2023-04-05T21:35:48.634Z,0.99
2023-04-05T21:38:16.039Z,1.26
2023-04-05T21:40:44.889Z,0.98
2023-04-05T21:43:13.551Z,0.94
2023-04-05T21:45:40.877Z,0.87
2023-04-05T21:48:08.079Z,0.88
2023-04-05T21:50:35.535Z,0.85
2023-04-05T21:53:02.332Z,0.97
2023-04-05T21:55:29.266Z,1.07
2023-04-05T21:57:56.220Z,1.06
2023-04-05T22:00:26.837Z,1.04
2023-04-05T22:02:56.698Z,0.92
2023-04-05T22:05:36.410Z,0.86
2023-04-05T22:08:06.257Z,0.73
2023-04-05T22:10:33.821Z,0.68
2023-04-05T22:13:01.163Z,0.66
2023-04-05T22:15:28.064Z,0.49
2023-04-05T22:17:55.237Z,0.44
2023-04-05T22:20:22.179Z,0.38
2023-04-05T22:22:49.238Z,0.26
2023-04-05T22:25:16.206Z,0.10
2023-04-05T22:27:43.110Z,-0.14
2023-04-05T22:30:12.826Z,-0.42
2023-04-05T22:32:39.763Z,-0.14
2023-04-05T22:35:07.114Z,-0.03
2023-04-05T22:37:35.922Z,-0.17
2023-04-05T22:40:04.927Z,-0.25
2023-04-05T22:42:32.097Z,-0.29
2023-04-05T22:44:59.232Z,-0.19
2023-04-05T22:47:26.465Z,-0.47
2023-04-05T22:49:53.912Z,-0.50
2023-04-05T22:52:20.947Z,-0.56
2023-04-05T22:54:51.318Z,-0.42
2023-04-05T22:57:18.542Z,-0.53
2023-04-05T22:59:45.652Z,-0.51
2023-04-05T23:02:12.840Z,-0.48
2023-04-05T23:04:39.962Z,-0.58
2023-04-05T23:07:07.014Z,-0.61
2023-04-05T23:09:34.435Z,-0.67
2023-04-05T23:12:01.770Z,-0.69
2023-04-05T23:14:28.791Z,-0.76
2023-04-05T23:16:55.723Z,-0.79
2023-04-05T23:19:22.741Z,-0.81
2023-04-05T23:21:49.585Z,-0.99
2023-04-05T23:24:16.588Z,-0.94
2023-04-05T23:26:43.618Z,-0.94
2023-04-05T23:29:10.832Z,-0.97
2023-04-05T23:31:37.885Z,-0.93
2023-04-05T23:34:04.907Z,-0.91
2023-04-05T23:36:32.742Z,-0.87
2023-04-05T23:39:00.381Z,-0.88
2023-04-05T23:41:27.357Z,-0.82
2023-04-05T23:43:54.444Z,-0.81
2023-04-05T23:46:22.371Z,-0.92
2023-04-05T23:48:49.685Z,-0.97
2023-04-05T23:51:17.365Z,-1.09
2023-04-05T23:53:44.492Z,-0.99
2023-04-05T23:56:11.692Z,-1.12
2023-04-05T23:58:38.829Z,-1.31
